createdAt,value
2017-11-03T00:02:49.189Z,7.20
2017-11-03T00:17:34.613Z,7.14
2017-11-03T00:32:34.557Z,7.05
2017-11-03T01:02:34.438Z,6.93
2017-11-03T01:17:34.885Z,6.88
2017-11-03T01:32:36.830Z,6.82
2017-11-03T01:47:35.739Z,6.81
2017-11-03T02:02:34.703Z,6.82
2017-11-03T02:17:35.130Z,6.76
2017-11-03T02:32:35.953Z,6.66
2017-11-03T02:47:34.991Z,6.49
2017-11-03T03:02:35.029Z,6.34
2017-11-03T03:17:35.393Z,6.27
2017-11-03T03:32:37.308Z,6.21
2017-11-03T03:47:37.262Z,6.22
2017-11-03T04:02:36.488Z,6.29
2017-11-03T04:17:35.097Z,6.38
2017-11-03T04:32:34.466Z,6.45
2017-11-03T04:47:36.485Z,6.54
2017-11-03T05:02:35.098Z,6.85
2017-11-03T05:32:34.729Z,7.16
2017-11-03T05:47:36.571Z,7.31
2017-11-03T06:02:34.885Z,7.71
2017-11-03T06:17:33.856Z,8.04
2017-11-03T06:47:34.647Z,9.50
2017-11-03T07:02:36.581Z,11.24
2017-11-03T07:17:35.305Z,12.46
2017-11-03T07:32:35.699Z,13.02
2017-11-03T07:47:34.656Z,13.03
2017-11-03T08:02:35.585Z,13.06
2017-11-03T08:17:34.513Z,12.96
2017-11-03T08:32:34.455Z,13.07
2017-11-03T08:47:37.269Z,13.24
2017-11-03T09:02:35.210Z,12.87
2017-11-03T09:17:34.822Z,12.95
2017-11-03T09:32:35.243Z,12.01
2017-11-03T09:47:36.793Z,11.75
2017-11-03T10:02:37.605Z,12.17
2017-11-03T10:17:34.943Z,12.70
2017-11-03T10:32:37.399Z,13.69
2017-11-03T10:47:36.385Z,14.63
2017-11-03T11:02:34.747Z,15.30
2017-11-03T11:17:35.236Z,15.65
2017-11-03T11:32:37.294Z,15.56
2017-11-03T11:47:37.126Z,15.85
2017-11-03T12:02:36.982Z,16.41
2017-11-03T12:17:34.443Z,16.84
2017-11-03T12:32:34.374Z,17.06
2017-11-03T12:47:35.355Z,17.18
2017-11-03T13:02:34.677Z,16.93
2017-11-03T13:17:34.659Z,16.54
2017-11-03T13:32:34.624Z,16.04
2017-11-03T13:47:34.505Z,15.54
2017-11-03T14:02:36.412Z,15.16
2017-11-03T14:17:34.944Z,14.77
2017-11-03T14:32:34.928Z,14.42
2017-11-03T14:47:39.296Z,14.07
2017-11-03T15:02:34.785Z,13.76
2017-11-03T15:17:35.194Z,13.51
2017-11-03T15:32:37.136Z,13.29
2017-11-03T15:47:39.069Z,13.03
2017-11-03T16:02:34.984Z,12.82
2017-11-03T16:17:36.810Z,12.63
2017-11-03T16:32:37.325Z,12.43
2017-11-03T16:47:36.420Z,12.23
2017-11-03T17:02:36.196Z,12.05
2017-11-03T17:17:38.406Z,11.88
2017-11-03T17:32:38.033Z,11.59
2017-11-03T18:02:34.932Z,11.27
2017-11-03T18:17:36.955Z,11.13
2017-11-03T18:32:35.866Z,11.04
2017-11-03T18:47:35.859Z,10.96
2017-11-03T19:02:34.178Z,10.88
2017-11-03T19:17:36.645Z,10.83
2017-11-03T19:32:37.174Z,10.78
2017-11-03T19:47:35.560Z,10.77
2017-11-03T20:02:36.902Z,10.77
2017-11-03T20:17:38.809Z,10.72
2017-11-03T20:32:36.257Z,10.65
2017-11-03T20:47:36.679Z,10.57
2017-11-03T21:02:34.637Z,10.52
2017-11-03T21:17:34.708Z,10.47
2017-11-03T21:32:35.194Z,10.39
2017-11-03T21:47:37.632Z,10.40
2017-11-03T22:02:34.594Z,10.40
2017-11-03T22:17:36.452Z,10.37
2017-11-03T22:32:34.363Z,10.31
2017-11-03T22:47:33.847Z,10.22
2017-11-03T23:02:36.771Z,10.13
2017-11-03T23:17:34.688Z,10.07
2017-11-03T23:32:37.125Z,10.06
2017-11-03T23:47:37.118Z,10.02
